Aérodrome :
LOGIN :

S'inscrire | Disclaimer

   EN    FR    IT 

 










Légende :    VFR   VFR Marginal   IFR   IFR Intensif   IFR Très Intensif
Visi : 
Plafond : 
>= 8 km
>= 3000ft
5 à 8 km
1000 à 3000 ft
1500m à 5 km
500 à 1000 ft
800 à 1500m
200 à 500 ft
< 800m
< 200 ft
Symboles :   Orages  Brouillard  Fortes neiges  Fortes précipitations  Vent > 20 kt
SIGMETs :   Divers  Orages  Givrage  Turbulence  Onde Orograph.  Cendres Volcan.






- Altitude de l'aérodrome : 1325 ft
- Code IATA : EBU


LFMH - St-Etienne Boutheon

DERNIER METAR :
  • 240300Z AUTO 00000KT 5000 BR BKN039 OVC210 M00/M01 Q1023 NOSIG

METARs EXPIRÉS :
  • 240230Z AUTO 00000KT 4000 BR NSC M01/M01 Q1023 NOSIG
  • 240200Z AUTO 17004KT 4400 BR NSC M00/M01 Q1023
  • 240130Z AUTO 35001KT 4100 BR NSC M00/M01 Q1023
  • 240100Z AUTO 34002KT 4000 BR NSC M00/M01 Q1023
  • 240030Z AUTO VRB03KT 4100 BR FEW043 OVC220 00/M01 Q1023

TAF TAF LFMH
Valide du 24 à 03h jusqu'au 25 à 03h UTC


240200Z 2403/2503 18004KT 7000 NSC
TEMPO 2403/2409 4000 BR
TEMPO 2418/2503 3000 BR
ATIS : +33 4 77 36 17 51



MET'MAP, la Météo Aéronautique d'un coup d'oeil ! - Copyright ORBIFLY Décembre 2007 - Disclaimer

ORBIFLY MET'MAP TEAM :

Programmation & Développement : Alexandra Zaïnal
Sur une idée originale de : Baudouin d'Aumeries
Assistance à la programmation : Marc-Olivier Méhu
Soutien technique & logistique : Manuel Goepfert

Contact : metmap@orbifly.com




SOURCES & CREDITS :

   NOAA